^^
Meteo Knjazevac Station Historical Data
Daily Summary for June 17, 2021 Units:  English    Metric   Both
Daily Weekly Monthly Yearly Custom
  High: Low: Average:
Temperature: 84.9 °F 55.9 °F 69.9 °F
Dew Point: 70.7 °F 54.2 °F 63 °F
Humidity: 96% 53% 80%
Wind Speed: 7mph 0mph 1.8mph
Wind Gust: 13mph - -
Wind- - SSW
Pressure: 30.14 in 30.07 in -
Precipitation: 0.15 in    
Historical Graphs
 
 
Tabular Data for June 17, 2021
Time Temperature Dew Point Pressure Wind Wind Speed Wind Gust Humidity Rainfall Rate (Hourly) solar Conditions
00:00 64.4 °F 59.8 °F 30.10 in ENE 1 mph 3 mph 85% 0.00 in 0 W/m2
00:10 64.1 °F 59.5 °F 30.10 in Calm   2 mph 85% 0.00 in 0 W/m2
00:20 64 °F 59.4 °F 30.11 in Calm   2 mph 85% 0.00 in 0 W/m2
00:30 64 °F 59.8 °F 30.11 in SW 1 mph 3 mph 86% 0.00 in 0 W/m2
00:40 63.9 °F 60.2 °F 30.10 in Calm   3 mph 88% 0.00 in 0 W/m2
00:50 63.7 °F 60.1 °F 30.10 in Calm     88% 0.00 in 0 W/m2
01:00 63.5 °F 59.9 °F 30.10 in NW 1 mph 2 mph 88% 0.00 in 0 W/m2
01:10 63.3 °F 59.7 °F 30.10 in Calm   2 mph 88% 0.00 in 0 W/m2
01:20 63.2 °F 59.6 °F 30.11 in Calm   2 mph 88% 0.00 in 0 W/m2
01:30 63 °F 59.7 °F 30.11 in North 1 mph 3 mph 89% 0.00 in 0 W/m2
01:40 62.4 °F 59.1 °F 30.11 in Calm   2 mph 89% 0.00 in 0 W/m2
01:50 62.2 °F 59 °F 30.11 in Calm   2 mph 89% 0.00 in 0 W/m2
02:00 61.7 °F 58.7 °F 30.11 in Calm   1 mph 90% 0.00 in 0 W/m2
02:10 61.3 °F 58.4 °F 30.11 in Calm   2 mph 90% 0.00 in 0 W/m2
02:20 60.9 °F 58.2 °F 30.11 in NW 1 mph 2 mph 91% 0.00 in 0 W/m2
02:30 60.5 °F 57.9 °F 30.11 in Calm   2 mph 91% 0.00 in 0 W/m2
02:40 60.3 °F 57.6 °F 30.10 in NNE 1 mph 4 mph 91% 0.00 in 0 W/m2
02:50 60.4 °F 57.8 °F 30.10 in SE 1 mph 5 mph 91% 0.00 in 0 W/m2
03:00 60.1 °F 57.4 °F 30.10 in Calm   4 mph 91% 0.00 in 0 W/m2
03:10 59.7 °F 57.1 °F 30.11 in NNW 1 mph 5 mph 91% 0.00 in 0 W/m2
03:20 59.5 °F 56.9 °F 30.10 in Calm   5 mph 91% 0.00 in 0 W/m2
03:30 58.9 °F 56.2 °F 30.11 in Calm   2 mph 91% 0.00 in 0 W/m2
03:40 58.5 °F 56.4 °F 30.11 in WNW 2 mph 3 mph 93% 0.00 in 0 W/m2
03:50 57.9 °F 55.9 °F 30.11 in WNW 1 mph 2 mph 93% 0.00 in 0 W/m2
04:00 57.6 °F 55.6 °F 30.11 in West 1 mph 2 mph 93% 0.00 in 0 W/m2
04:10 57 °F 55.3 °F 30.11 in WNW 1 mph 3 mph 94% 0.00 in 0 W/m2
04:20 57 °F 55.3 °F 30.10 in NNW 1 mph 2 mph 94% 0.00 in 0 W/m2
04:30 56.8 °F 55.1 °F 30.10 in Calm   1 mph 94% 0.00 in 0 W/m2
04:40 56.7 °F 55.2 °F 30.10 in SSE 1 mph 5 mph 95% 0.00 in 0 W/m2
04:50 56.5 °F 54.8 °F 30.10 in West 1 mph 3 mph 94% 0.00 in 3 W/m2
05:00 56.3 °F 54.9 °F 30.10 in Calm   4 mph 95% 0.00 in 8 W/m2
05:10 56.1 °F 54.7 °F 30.11 in Calm   3 mph 95% 0.00 in 15 W/m2
05:20 55.9 °F 54.2 °F 30.11 in Calm   2 mph 94% 0.00 in 22 W/m2
05:30 55.9 °F 54.5 °F 30.11 in Calm   2 mph 95% 0.00 in 31 W/m2
05:40 56.3 °F 55.1 °F 30.11 in SSE 1 mph 6 mph 96% 0.00 in 40 W/m2
05:50 57 °F 55.3 °F 30.11 in SSE 1 mph 8 mph 94% 0.00 in 76 W/m2
06:00 56.7 °F 55 °F 30.12 in Calm   3 mph 94% 0.00 in 52 W/m2
06:10 56.8 °F 55.4 °F 30.12 in WNW 1 mph 5 mph 95% 0.00 in 57 W/m2
06:20 57.5 °F 56.1 °F 30.12 in SE 2 mph 6 mph 95% 0.00 in 63 W/m2
06:30 57.4 °F 55.7 °F 30.12 in Calm   3 mph 94% 0.00 in 78 W/m2
06:40 57.4 °F 55.7 °F 30.12 in Calm   2 mph 94% 0.00 in 84 W/m2
06:50 57.4 °F 56 °F 30.12 in NE 1 mph 4 mph 95% 0.00 in 109 W/m2
07:00 57.7 °F 56.3 °F 30.12 in SSW 1 mph 5 mph 95% 0.00 in 120 W/m2
07:10 58.3 °F 56.9 °F 30.13 in SSE 2 mph 5 mph 95% 0.00 in 107 W/m2
07:20 58.8 °F 57.4 °F 30.13 in East 1 mph 4 mph 95% 0.00 in 317 W/m2
07:30 59.5 °F 58.1 °F 30.13 in SSE 1 mph 5 mph 95% 0.00 in 161 W/m2
07:40 60.1 °F 58.6 °F 30.13 in SW 1 mph 3 mph 95% 0.00 in 191 W/m2
07:50 60.8 °F 59.4 °F 30.13 in Calm   2 mph 95% 0.00 in 208 W/m2
08:00 61.5 °F 60.1 °F 30.13 in West 1 mph 1 mph 95% 0.00 in 239 W/m2
08:10 62.4 °F 61 °F 30.13 in SW 1 mph 3 mph 95% 0.00 in 248 W/m2
08:20 63.5 °F 60.8 °F 30.14 in SSE 1 mph 4 mph 91% 0.00 in 269 W/m2
08:30 64.6 °F 61.6 °F 30.14 in SE 1 mph 4 mph 90% 0.00 in 314 W/m2
08:40 65.8 °F 62.5 °F 30.14 in SE 3 mph 5 mph 89% 0.00 in 329 W/m2
08:50 66.9 °F 62.2 °F 30.14 in SE 2 mph 7 mph 85% 0.00 in 362 W/m2
09:00 67.8 °F 62.8 °F 30.14 in SE 3 mph 8 mph 84% 0.00 in 380 W/m2
09:10 69.1 °F 63.7 °F 30.14 in SE 3 mph 8 mph 83% 0.00 in 476 W/m2
09:20 70.7 °F 64.2 °F 30.14 in SE 2 mph 6 mph 80% 0.00 in 645 W/m2
09:30 72 °F 64.4 °F 30.14 in SSE 3 mph 7 mph 77% 0.00 in 477 W/m2
09:40 72.8 °F 65.6 °F 30.13 in SSE 5 mph 6 mph 78% 0.00 in 641 W/m2
09:50 73.7 °F 65.3 °F 30.14 in South 1 mph 6 mph 75% 0.00 in 540 W/m2
10:00 74.5 °F 65.6 °F 30.14 in NE 1 mph 6 mph 74% 0.00 in 559 W/m2
10:10 75 °F 64.6 °F 30.14 in SSE 2 mph 6 mph 70% 0.00 in 657 W/m2
10:20 75.7 °F 65.2 °F 30.13 in SSE 3 mph 6 mph 70% 0.00 in 710 W/m2
10:30 76.3 °F 65.8 °F 30.13 in SSW 1 mph 6 mph 70% 0.00 in 689 W/m2
10:40 77 °F 66 °F 30.13 in WSW 1 mph 5 mph 69% 0.00 in 485 W/m2
10:50 77.4 °F 66 °F 30.13 in SSW 2 mph 8 mph 68% 0.00 in 662 W/m2
11:00 77.9 °F 66.1 °F 30.13 in WSW 1 mph 6 mph 67% 0.00 in 600 W/m2
11:10 79 °F 67.1 °F 30.13 in WSW 3 mph 7 mph 67% 0.00 in 769 W/m2
11:20 79.5 °F 66.2 °F 30.12 in WNW 1 mph 5 mph 64% 0.00 in 888 W/m2
11:30 80.4 °F 66.6 °F 30.12 in South 2 mph 7 mph 63% 0.00 in 953 W/m2
11:40 80.6 °F 66.8 °F 30.12 in South 2 mph 7 mph 63% 0.00 in 961 W/m2
11:50 81.1 °F 66.9 °F 30.12 in SSE 1 mph 7 mph 62% 0.00 in 967 W/m2
12:00 81.7 °F 66.4 °F 30.11 in SSE 3 mph 7 mph 60% 0.00 in 621 W/m2
12:10 81.3 °F 66.1 °F 30.11 in ESE 3 mph 8 mph 60% 0.00 in 442 W/m2
12:20 81 °F 65.8 °F 30.11 in ENE 5 mph 7 mph 60% 0.00 in 245 W/m2
12:30 80.4 °F 66.7 °F 30.11 in NNE 2 mph 9 mph 63% 0.00 in 201 W/m2
12:40 79.2 °F 67.3 °F 30.11 in NNW 7 mph 12 mph 67% 0.00 in 181 W/m2
12:50 77.6 °F 66.2 °F 30.10 in NNW 5 mph 13 mph 68% 0.00 in 213 W/m2
13:00 76.3 °F 65.8 °F 30.10 in NNW 5 mph 12 mph 70% 0.00 in 460 W/m2
13:10 76.4 °F 68.7 °F 30.10 in WSW 3 mph 7 mph 77% 0.00 in 843 W/m2
13:20 77.7 °F 68.8 °F 30.10 in WSW 5 mph 7 mph 74% 0.00 in 917 W/m2
13:30 78.6 °F 69.2 °F 30.10 in West 3 mph 7 mph 73% 0.00 in 634 W/m2
13:40 78.6 °F 67.6 °F 30.10 in WSW 5 mph 8 mph 69% 0.00 in 941 W/m2
13:50 79.3 °F 67.9 °F 30.09 in WSW 5 mph 9 mph 68% 0.00 in 930 W/m2
14:00 80.4 °F 68.4 °F 30.09 in SW 3 mph 7 mph 67% 0.00 in 917 W/m2
14:10 81.1 °F 67.8 °F 30.09 in SW 5 mph 8 mph 64% 0.00 in 903 W/m2
14:20 81.7 °F 67.4 °F 30.09 in WSW 5 mph 7 mph 62% 0.00 in 888 W/m2
14:30 82.2 °F 68.4 °F 30.09 in NNW 1 mph 6 mph 63% 0.00 in 871 W/m2
14:40 82.9 °F 67.6 °F 30.09 in NW 2 mph 5 mph 60% 0.00 in 854 W/m2
14:50 83.5 °F 67.6 °F 30.08 in WSW 3 mph 9 mph 59% 0.00 in 834 W/m2
15:00 83.7 °F 66.8 °F 30.08 in WSW 5 mph 6 mph 57% 0.00 in 814 W/m2
15:10 83.8 °F 65.4 °F 30.08 in SW 2 mph 7 mph 54% 0.00 in 793 W/m2
15:20 84.4 °F 65.9 °F 30.07 in WSW 3 mph 8 mph 54% 0.00 in 770 W/m2
15:30 84.6 °F 66.6 °F 30.07 in SW 7 mph 10 mph 55% 0.00 in 747 W/m2
15:40 84.6 °F 66.6 °F 30.07 in SW 5 mph 9 mph 55% 0.00 in 722 W/m2
15:50 84.6 °F 65.5 °F 30.07 in SW 6 mph 10 mph 53% 0.00 in 697 W/m2
16:00 84.7 °F 65.7 °F 30.07 in SW 6 mph 11 mph 53% 0.00 in 671 W/m2
16:10 84.9 °F 65.9 °F 30.08 in SW 2 mph 8 mph 53% 0.00 in 644 W/m2
16:20 84.2 °F 66.3 °F 30.08 in NW 5 mph 7 mph 55% 0.00 in 83 W/m2
16:30 82.9 °F 67.1 °F 30.08 in NNW 2 mph 8 mph 59% 0.00 in 69 W/m2
16:40 80.8 °F 68.8 °F 30.09 in NNW 1 mph 7 mph 67% 0.01 in 111 W/m2
16:50 79.2 °F 67.7 °F 30.09 in West 3 mph 7 mph 68% 0.01 in 95 W/m2
17:00 77.9 °F 68.5 °F 30.10 in North 3 mph 7 mph 73% 0.03 in 63 W/m2
17:10 76.1 °F 69.1 °F 30.10 in NNW 2 mph 8 mph 79% 0.04 in 76 W/m2
17:20 75.2 °F 69 °F 30.10 in ENE 3 mph 7 mph 81% 0.06 in 114 W/m2
17:30 74.3 °F 69.8 °F 30.10 in NNW 2 mph 5 mph 86% 0.01 in 255 W/m2
17:40 74.3 °F 70.5 °F 30.10 in North 1 mph 6 mph 88% 0.00 in 378 W/m2
17:50 74.5 °F 70.7 °F 30.10 in Calm   6 mph 88% 0.00 in 258 W/m2
18:00 74.7 °F 69.5 °F 30.10 in NNW 2 mph 6 mph 84% 0.00 in 317 W/m2
18:10 75 °F 70.2 °F 30.10 in NNW 2 mph 5 mph 85% 0.00 in 271 W/m2
18:30 74.5 °F 69.3 °F 30.11 in West 1 mph 3 mph 84% 0.00 in 229 W/m2
18:40 74.7 °F 69.5 °F 30.11 in SW 2 mph 5 mph 84% 0.00 in 201 W/m2
18:50 74.7 °F 68.1 °F 30.11 in SSW 2 mph 4 mph 80% 0.00 in 173 W/m2
19:00 74.5 °F 69 °F 30.11 in SSE 1 mph 5 mph 83% 0.00 in 147 W/m2
19:10 74.5 °F 69 °F 30.12 in SSW 2 mph 3 mph 83% 0.00 in 121 W/m2
19:20 74.1 °F 67.9 °F 30.12 in SW 1 mph 4 mph 81% 0.00 in 97 W/m2
19:30 73.8 °F 67.6 °F 30.12 in South 2 mph 4 mph 81% 0.00 in 73 W/m2
19:40 73.6 °F 68.4 °F 30.12 in SW 1 mph 3 mph 84% 0.00 in 48 W/m2
19:50 73.2 °F 68.1 °F 30.12 in Calm   2 mph 84% 0.00 in 30 W/m2
20:00 73 °F 67.9 °F 30.12 in SSW 1 mph 3 mph 84% 0.00 in 14 W/m2
20:10 72.1 °F 67.7 °F 30.12 in SSE 1 mph 4 mph 86% 0.00 in 6 W/m2
20:20 71.6 °F 67.9 °F 30.12 in SW 1 mph 2 mph 88% 0.00 in 0 W/m2
20:30 71.1 °F 67.3 °F 30.12 in NNW 1 mph 3 mph 88% 0.00 in 0 W/m2
Knjazevac, Serbia
Compliments of Weather Underground - 2 mb